createdAt,value
2023-03-30T00:01:05.233Z,12.10
2023-03-30T00:03:33.336Z,12.07
2023-03-30T00:06:05.312Z,10.57
2023-03-30T00:08:33.245Z,12.73
2023-03-30T00:11:13.309Z,11.93
2023-03-30T00:13:40.513Z,11.77
2023-03-30T00:16:11.349Z,13.70
2023-03-30T00:18:39.463Z,14.63
2023-03-30T00:21:09.481Z,17.00
2023-03-30T00:23:36.615Z,13.97
2023-03-30T00:26:04.124Z,14.23
2023-03-30T00:28:31.702Z,13.00
2023-03-30T00:30:58.876Z,16.20
2023-03-30T00:33:41.345Z,12.27
2023-03-30T00:36:12.567Z,11.00
2023-03-30T00:38:40.432Z,10.80
2023-03-30T00:41:07.747Z,17.63
2023-03-30T00:43:34.783Z,25.57
2023-03-30T00:46:01.959Z,13.53
2023-03-30T00:48:36.814Z,11.07
2023-03-30T00:51:09.751Z,12.23
2023-03-30T00:53:48.195Z,16.90
2023-03-30T00:56:19.908Z,14.27
2023-03-30T00:58:47.102Z,9.97
2023-03-30T01:01:18.899Z,10.93
2023-03-30T01:03:48.264Z,15.40
2023-03-30T01:06:18.052Z,12.93
2023-03-30T01:08:45.420Z,15.13
2023-03-30T01:11:12.471Z,15.67
2023-03-30T01:13:45.601Z,15.83
2023-03-30T01:16:41.714Z,19.13
2023-03-30T01:19:29.388Z,15.67
2023-03-30T01:22:41.381Z,20.80
2023-03-30T01:25:29.004Z,19.23
2023-03-30T01:28:44.346Z,17.07
2023-03-30T01:31:35.158Z,14.10
2023-03-30T01:35:02.436Z,15.43
2023-03-30T01:38:01.014Z,14.77
2023-03-30T01:40:43.087Z,16.27
2023-03-30T01:43:20.998Z,15.20
2023-03-30T01:45:57.429Z,16.53
2023-03-30T01:48:51.820Z,19.33
2023-03-30T01:51:24.050Z,16.83
2023-03-30T01:54:07.196Z,17.40
2023-03-30T01:56:47.153Z,16.07
2023-03-30T01:59:26.338Z,18.13
2023-03-30T02:02:02.669Z,23.73
2023-03-30T02:04:36.171Z,18.33
2023-03-30T02:07:10.221Z,15.70
2023-03-30T02:09:40.351Z,14.90
2023-03-30T02:12:10.426Z,14.93
2023-03-30T02:14:41.014Z,15.17
2023-03-30T02:17:19.703Z,14.60
2023-03-30T02:19:47.398Z,16.93
2023-03-30T02:22:18.499Z,16.50
2023-03-30T02:24:48.650Z,23.83
2023-03-30T02:27:17.905Z,14.83
2023-03-30T02:29:45.996Z,15.70
2023-03-30T02:32:52.812Z,14.90
2023-03-30T02:35:33.923Z,17.47
2023-03-30T02:38:34.322Z,15.60
2023-03-30T02:41:32.482Z,12.70
2023-03-30T02:44:31.905Z,17.83
2023-03-30T02:47:09.214Z,18.80
2023-03-30T02:50:02.422Z,19.03
2023-03-30T02:53:06.219Z,19.40
2023-03-30T02:56:03.978Z,19.60
2023-03-30T02:59:08.696Z,19.70
2023-03-30T03:01:59.251Z,23.33
2023-03-30T03:04:28.863Z,19.60
2023-03-30T03:07:14.701Z,19.37
2023-03-30T03:09:42.206Z,19.30
2023-03-30T03:12:09.584Z,21.17
2023-03-30T03:14:39.167Z,26.40
2023-03-30T03:17:06.465Z,20.00
2023-03-30T03:19:38.181Z,19.97
2023-03-30T03:22:05.680Z,23.93
2023-03-30T03:24:39.102Z,18.67
2023-03-30T03:27:30.131Z,21.33
2023-03-30T03:30:12.918Z,25.73
2023-03-30T03:32:45.980Z,23.97
2023-03-30T03:35:13.088Z,21.80
2023-03-30T03:37:40.006Z,20.37
2023-03-30T03:40:08.180Z,28.13
2023-03-30T03:42:35.964Z,22.40
2023-03-30T03:45:09.806Z,25.80
2023-03-30T03:47:47.443Z,22.77
2023-03-30T03:50:15.236Z,23.77
2023-03-30T03:52:42.140Z,30.20
2023-03-30T03:55:09.379Z,25.57
2023-03-30T03:57:39.348Z,21.13
2023-03-30T04:00:15.546Z,23.20
2023-03-30T04:02:45.581Z,26.47
2023-03-30T04:05:13.280Z,22.40
2023-03-30T04:07:40.341Z,21.83
2023-03-30T04:10:08.108Z,21.53
2023-03-30T04:12:41.940Z,26.33
2023-03-30T04:15:20.679Z,19.37
2023-03-30T04:18:02.053Z,24.20
2023-03-30T04:20:51.898Z,21.77
2023-03-30T04:23:35.694Z,22.77
2023-03-30T04:26:21.031Z,24.47
2023-03-30T04:28:47.936Z,21.37
2023-03-30T04:31:50.896Z,22.00
2023-03-30T04:34:48.549Z,21.50
2023-03-30T04:37:52.310Z,23.13
2023-03-30T04:40:30.938Z,18.97
2023-03-30T04:43:05.868Z,27.03
2023-03-30T04:46:01.859Z,20.77
2023-03-30T04:48:54.235Z,21.07
2023-03-30T04:51:39.612Z,20.27
2023-03-30T04:54:24.998Z,22.00
2023-03-30T04:57:14.085Z,21.27
2023-03-30T04:59:59.683Z,26.90
2023-03-30T05:02:52.592Z,21.30
2023-03-30T05:05:28.205Z,19.70
2023-03-30T05:08:13.374Z,22.30
2023-03-30T05:11:08.916Z,21.30
2023-03-30T05:13:57.049Z,19.73
2023-03-30T05:16:50.199Z,22.87
2023-03-30T05:19:43.491Z,22.60
2023-03-30T05:22:19.513Z,23.37
2023-03-30T05:24:54.672Z,27.60
2023-03-30T05:27:31.462Z,23.10
2023-03-30T05:30:16.787Z,23.90
2023-03-30T05:33:22.263Z,24.20
2023-03-30T05:36:18.769Z,24.97
2023-03-30T05:39:00.190Z,25.40
2023-03-30T05:41:50.801Z,28.50
2023-03-30T05:44:29.109Z,23.33
2023-03-30T05:47:18.808Z,21.93
2023-03-30T05:50:00.920Z,18.43
2023-03-30T05:52:48.044Z,18.80
2023-03-30T05:55:48.041Z,19.90
2023-03-30T05:58:33.645Z,20.50
2023-03-30T06:01:09.428Z,20.93
2023-03-30T06:03:40.059Z,31.00
2023-03-30T06:06:09.579Z,20.40
2023-03-30T06:08:37.832Z,22.73
2023-03-30T06:11:06.910Z,21.27
2023-03-30T06:13:54.214Z,23.93
2023-03-30T06:16:21.751Z,23.10
2023-03-30T06:18:48.761Z,21.03
2023-03-30T06:21:15.888Z,19.57
2023-03-30T06:24:01.451Z,25.97
2023-03-30T06:26:30.878Z,21.23
2023-03-30T06:28:57.821Z,24.23
2023-03-30T06:31:25.343Z,21.97
2023-03-30T06:34:05.274Z,16.73
2023-03-30T06:36:45.210Z,20.17
2023-03-30T06:39:14.387Z,17.53
2023-03-30T06:41:41.817Z,33.37
2023-03-30T06:44:22.605Z,26.77
2023-03-30T06:46:50.352Z,16.67
2023-03-30T06:49:17.356Z,20.67
2023-03-30T06:51:44.193Z,24.23
2023-03-30T06:54:11.939Z,19.23
2023-03-30T06:56:44.986Z,19.53
2023-03-30T06:59:15.660Z,19.57
2023-03-30T07:02:14.264Z,21.23
2023-03-30T07:04:58.030Z,20.67
2023-03-30T07:07:57.540Z,19.40
2023-03-30T07:10:25.770Z,19.87
2023-03-30T07:12:53.892Z,17.60
2023-03-30T07:15:24.365Z,19.93
2023-03-30T07:17:51.918Z,18.73
2023-03-30T07:20:20.372Z,14.97
2023-03-30T07:23:02.599Z,17.87
2023-03-30T07:25:30.056Z,17.13
2023-03-30T07:27:58.281Z,17.80
2023-03-30T07:30:26.129Z,17.73
2023-03-30T07:32:59.401Z,18.37
2023-03-30T07:35:27.065Z,17.57
2023-03-30T07:38:02.848Z,16.87
2023-03-30T07:40:34.761Z,17.67
2023-03-30T07:43:03.819Z,19.50
2023-03-30T07:45:31.262Z,17.37
2023-03-30T07:47:58.506Z,14.37
2023-03-30T07:50:25.735Z,17.30
2023-03-30T07:52:55.126Z,14.97
2023-03-30T07:55:22.482Z,15.40
2023-03-30T07:57:57.106Z,18.50
2023-03-30T08:00:24.824Z,17.93
2023-03-30T08:03:15.861Z,14.70
2023-03-30T08:05:43.844Z,18.50
2023-03-30T08:08:16.284Z,23.80
2023-03-30T08:10:43.217Z,17.50
2023-03-30T08:13:12.353Z,18.87
2023-03-30T08:15:39.837Z,14.43
2023-03-30T08:18:08.305Z,17.63
2023-03-30T08:20:37.874Z,23.23
2023-03-30T08:23:06.178Z,16.77
2023-03-30T08:25:33.448Z,17.97
2023-03-30T08:28:00.769Z,18.40
2023-03-30T08:30:28.345Z,24.03
2023-03-30T08:32:55.394Z,19.73
2023-03-30T08:35:22.406Z,14.63
2023-03-30T08:37:49.966Z,15.33
2023-03-30T08:40:22.376Z,15.30
2023-03-30T08:43:14.541Z,19.40
2023-03-30T08:45:42.982Z,19.53
2023-03-30T08:48:35.544Z,15.80
2023-03-30T08:51:22.884Z,14.83
2023-03-30T08:54:06.880Z,18.67
2023-03-30T08:56:49.761Z,17.97
2023-03-30T08:59:35.750Z,28.50
2023-03-30T09:02:28.783Z,15.33
2023-03-30T09:05:03.416Z,19.00
2023-03-30T09:07:52.394Z,19.53
2023-03-30T09:10:21.748Z,14.77
2023-03-30T09:12:52.801Z,26.63
2023-03-30T09:15:31.239Z,14.63
2023-03-30T09:18:31.456Z,12.70
2023-03-30T09:21:06.069Z,40.67
2023-03-30T09:23:34.288Z,29.00
2023-03-30T09:26:27.143Z,15.13
2023-03-30T09:29:19.245Z,16.20
2023-03-30T09:31:55.924Z,16.53
2023-03-30T09:34:39.111Z,15.57
2023-03-30T09:37:22.366Z,13.87
2023-03-30T09:39:50.819Z,17.70
2023-03-30T09:42:48.083Z,15.10
2023-03-30T09:45:20.478Z,15.17
2023-03-30T09:47:47.400Z,23.10
2023-03-30T09:50:23.232Z,24.40
2023-03-30T09:53:07.201Z,12.97
2023-03-30T09:55:35.894Z,16.87
2023-03-30T09:58:18.665Z,12.93
2023-03-30T10:00:46.972Z,18.27
2023-03-30T10:03:23.257Z,12.90
2023-03-30T10:06:16.144Z,12.50
2023-03-30T10:08:44.366Z,13.43
2023-03-30T10:11:11.588Z,11.90
2023-03-30T10:13:43.878Z,20.63
2023-03-30T10:16:28.170Z,13.73
2023-03-30T10:19:00.862Z,11.40
2023-03-30T10:21:37.738Z,17.50
2023-03-30T10:24:22.042Z,15.67
2023-03-30T10:27:17.070Z,22.77
2023-03-30T10:29:50.663Z,15.43
2023-03-30T10:32:32.156Z,18.30
2023-03-30T10:35:02.021Z,11.47
2023-03-30T10:37:43.257Z,14.73
2023-03-30T10:40:32.397Z,14.80
2023-03-30T10:43:01.035Z,15.37
2023-03-30T10:45:36.836Z,14.60
2023-03-30T10:48:27.512Z,13.73
2023-03-30T10:51:25.844Z,17.70
2023-03-30T10:54:18.310Z,10.73
2023-03-30T10:56:52.093Z,13.20
2023-03-30T10:59:58.609Z,10.20
2023-03-30T11:02:54.349Z,13.93
2023-03-30T11:05:32.522Z,14.40
2023-03-30T11:08:07.468Z,20.33
2023-03-30T11:10:44.091Z,33.60
2023-03-30T11:13:27.859Z,21.30
2023-03-30T11:16:07.185Z,11.00
2023-03-30T11:18:52.343Z,11.57
2023-03-30T11:21:33.514Z,15.60
2023-03-30T11:24:19.419Z,12.10
2023-03-30T11:27:07.091Z,15.83
2023-03-30T11:30:17.092Z,13.60
2023-03-30T11:32:53.652Z,12.20
2023-03-30T11:35:48.902Z,16.47
2023-03-30T11:38:21.958Z,15.10
2023-03-30T11:40:55.998Z,14.63
2023-03-30T11:43:24.184Z,23.53
2023-03-30T11:46:19.637Z,13.90
2023-03-30T11:49:30.325Z,10.50
2023-03-30T11:52:29.753Z,12.70
2023-03-30T11:55:47.414Z,12.27
2023-03-30T11:58:37.635Z,13.10
2023-03-30T12:01:33.490Z,14.80
2023-03-30T12:04:17.060Z,18.83
2023-03-30T12:07:01.768Z,21.70
2023-03-30T12:09:35.558Z,16.90
2023-03-30T12:12:20.752Z,19.37
2023-03-30T12:15:08.750Z,14.30
2023-03-30T12:18:14.422Z,12.47
2023-03-30T12:21:09.856Z,17.10
2023-03-30T12:24:29.616Z,11.07
2023-03-30T12:27:05.364Z,10.10
2023-03-30T12:32:29.514Z,13.60
2023-03-30T12:34:58.356Z,12.40
2023-03-30T12:37:35.505Z,12.00
2023-03-30T12:40:08.971Z,20.07
2023-03-30T12:42:46.843Z,18.43
2023-03-30T12:45:25.247Z,12.47
2023-03-30T12:48:17.195Z,12.90
2023-03-30T12:51:01.495Z,15.83
2023-03-30T12:54:10.843Z,13.67
2023-03-30T12:56:54.912Z,14.60
2023-03-30T12:59:58.818Z,16.83
2023-03-30T13:03:12.781Z,12.27
2023-03-30T13:05:43.839Z,10.00
2023-03-30T13:08:40.745Z,9.70
2023-03-30T13:11:17.691Z,8.67
2023-03-30T13:13:48.685Z,7.40
2023-03-30T13:16:52.103Z,8.97
2023-03-30T13:19:34.175Z,12.07
2023-03-30T13:22:12.875Z,11.60
2023-03-30T13:24:42.824Z,7.73
2023-03-30T13:27:18.809Z,6.20
2023-03-30T13:30:08.635Z,13.50
2023-03-30T13:32:40.297Z,13.70
2023-03-30T13:35:47.178Z,19.70
2023-03-30T13:38:57.599Z,7.47
2023-03-30T13:41:49.315Z,9.03
2023-03-30T13:44:41.617Z,6.10
2023-03-30T13:47:42.058Z,6.83
2023-03-30T13:50:31.220Z,7.87
2023-03-30T13:53:02.542Z,6.10
2023-03-30T13:55:35.803Z,6.37
2023-03-30T13:58:32.557Z,6.67
2023-03-30T14:01:10.649Z,17.60
2023-03-30T14:03:43.595Z,9.20
2023-03-30T14:06:13.526Z,8.90
2023-03-30T14:08:47.888Z,7.07
2023-03-30T14:11:40.320Z,8.53
2023-03-30T14:14:07.672Z,9.77
2023-03-30T14:16:38.913Z,9.63
2023-03-30T14:19:28.121Z,9.67
2023-03-30T14:22:04.703Z,10.13
2023-03-30T14:24:34.051Z,15.17
2023-03-30T14:27:15.622Z,8.90
2023-03-30T14:29:48.636Z,6.60
2023-03-30T14:32:19.541Z,9.77
2023-03-30T14:34:48.402Z,7.50
2023-03-30T14:37:15.604Z,10.17
2023-03-30T14:39:54.546Z,9.60
2023-03-30T14:42:25.167Z,9.40
2023-03-30T14:44:55.890Z,9.27
2023-03-30T14:47:26.545Z,8.63
2023-03-30T14:49:58.023Z,11.97
2023-03-30T14:52:39.885Z,11.00
2023-03-30T14:55:13.769Z,11.40
2023-03-30T14:57:44.363Z,10.70
2023-03-30T15:00:21.194Z,20.27
2023-03-30T15:03:01.204Z,11.83
2023-03-30T15:05:40.519Z,12.80
2023-03-30T15:08:21.007Z,14.40
2023-03-30T15:10:58.768Z,8.40
2023-03-30T15:13:40.379Z,11.33
2023-03-30T15:16:08.075Z,9.63
2023-03-30T15:18:37.253Z,14.57
2023-03-30T15:21:04.445Z,17.73
2023-03-30T15:23:40.995Z,10.53
2023-03-30T15:26:08.662Z,11.60
2023-03-30T15:28:48.701Z,9.30
2023-03-30T15:31:16.556Z,12.20
2023-03-30T15:33:52.305Z,12.53
2023-03-30T15:36:25.735Z,13.90
2023-03-30T15:38:58.794Z,15.20
2023-03-30T15:41:56.804Z,13.30
2023-03-30T15:44:24.209Z,9.27
2023-03-30T15:46:55.657Z,8.67
2023-03-30T15:49:31.239Z,8.10
2023-03-30T15:52:02.071Z,9.87
2023-03-30T15:54:52.085Z,11.30
2023-03-30T15:57:25.170Z,12.33
2023-03-30T16:00:01.357Z,9.90
2023-03-30T16:02:47.564Z,9.23
2023-03-30T16:05:22.892Z,10.30
2023-03-30T16:07:49.874Z,20.50
2023-03-30T16:10:24.739Z,11.80
2023-03-30T16:12:53.732Z,11.20
2023-03-30T16:15:27.312Z,8.60
2023-03-30T16:17:54.272Z,12.20
2023-03-30T16:20:30.463Z,11.47
2023-03-30T16:22:57.871Z,11.27
2023-03-30T16:25:41.617Z,12.27
2023-03-30T16:28:17.097Z,10.73
2023-03-30T16:30:47.621Z,12.30
2023-03-30T16:33:14.507Z,15.03
2023-03-30T16:35:41.563Z,10.33
2023-03-30T16:38:14.055Z,11.40
2023-03-30T16:40:44.183Z,20.10
2023-03-30T16:43:11.567Z,14.90
2023-03-30T16:45:38.545Z,11.40
2023-03-30T16:48:05.928Z,14.47
2023-03-30T16:50:41.270Z,18.63
2023-03-30T16:53:09.788Z,11.27
2023-03-30T16:55:38.726Z,11.57
2023-03-30T16:58:08.547Z,10.10
2023-03-30T17:00:42.774Z,10.77
2023-03-30T17:03:10.125Z,10.60
2023-03-30T17:05:37.650Z,14.30
2023-03-30T17:08:10.832Z,20.67
2023-03-30T17:10:40.872Z,11.53
2023-03-30T17:13:09.255Z,8.60
2023-03-30T17:15:38.626Z,10.07
2023-03-30T17:18:09.141Z,8.40
2023-03-30T17:20:42.386Z,13.43
2023-03-30T17:23:10.514Z,14.33
2023-03-30T17:25:39.848Z,21.90
2023-03-30T17:28:10.261Z,14.93
2023-03-30T17:30:40.508Z,14.80
2023-03-30T17:33:10.703Z,10.70
2023-03-30T17:35:38.609Z,9.23
2023-03-30T17:38:09.373Z,10.43
2023-03-30T17:40:40.838Z,12.23
2023-03-30T17:43:08.789Z,10.80
2023-03-30T17:45:37.236Z,8.97
2023-03-30T17:48:06.739Z,18.70
2023-03-30T17:50:43.441Z,13.13
2023-03-30T17:53:17.582Z,11.37
2023-03-30T17:55:47.439Z,10.50
2023-03-30T17:58:31.840Z,14.10
2023-03-30T18:01:01.398Z,11.97
2023-03-30T18:03:31.582Z,7.20
2023-03-30T18:06:00.631Z,12.40
2023-03-30T18:08:28.854Z,8.40
2023-03-30T18:11:00.722Z,14.50
2023-03-30T18:13:30.406Z,12.80
2023-03-30T18:15:59.765Z,16.60
2023-03-30T18:18:30.496Z,11.70
2023-03-30T18:21:02.475Z,14.47
2023-03-30T18:23:31.354Z,9.60
2023-03-30T18:25:58.241Z,11.57
2023-03-30T18:28:27.889Z,9.73
2023-03-30T18:31:00.734Z,9.50
2023-03-30T18:33:28.002Z,10.30
2023-03-30T18:35:56.894Z,7.53
2023-03-30T18:38:25.566Z,12.13
2023-03-30T18:40:57.420Z,9.17
2023-03-30T18:43:26.448Z,11.87
2023-03-30T18:45:54.479Z,10.00
2023-03-30T18:48:21.835Z,10.00
2023-03-30T18:50:53.945Z,9.63
2023-03-30T18:53:23.916Z,14.70
2023-03-30T18:55:54.204Z,10.17
2023-03-30T18:58:27.275Z,11.00
2023-03-30T19:00:55.734Z,7.23
2023-03-30T19:03:24.247Z,8.33
2023-03-30T19:05:51.580Z,7.93
2023-03-30T19:08:21.607Z,15.47
2023-03-30T19:10:52.210Z,11.47
2023-03-30T19:13:21.204Z,13.63
2023-03-30T19:15:50.432Z,13.40
2023-03-30T19:18:17.915Z,15.40
2023-03-30T19:20:44.933Z,16.03
2023-03-30T19:23:14.655Z,16.67
2023-03-30T19:25:43.355Z,12.70
2023-03-30T19:28:11.741Z,16.87
2023-03-30T19:30:39.838Z,14.73
2023-03-30T19:33:12.214Z,12.23
2023-03-30T19:35:44.224Z,11.00
2023-03-30T19:38:11.676Z,15.70
2023-03-30T19:40:40.417Z,18.43
2023-03-30T19:43:07.695Z,11.37
2023-03-30T19:45:34.682Z,13.27
2023-03-30T19:48:01.674Z,18.17
2023-03-30T19:50:30.230Z,14.40
2023-03-30T19:52:58.637Z,12.77
2023-03-30T19:55:25.783Z,13.07
2023-03-30T19:57:52.716Z,11.00
2023-03-30T20:00:21.943Z,12.00
2023-03-30T20:02:51.818Z,9.63
2023-03-30T20:05:20.940Z,12.17
2023-03-30T20:07:49.037Z,21.13
2023-03-30T20:10:21.126Z,15.40
2023-03-30T20:12:49.492Z,10.80
2023-03-30T20:15:17.346Z,11.77
2023-03-30T20:17:44.767Z,11.90
2023-03-30T20:20:16.982Z,14.63
2023-03-30T20:22:45.020Z,13.00
2023-03-30T20:25:14.186Z,11.27
2023-03-30T20:27:41.420Z,12.57
2023-03-30T20:30:09.654Z,9.90
2023-03-30T20:32:36.551Z,12.17
2023-03-30T20:35:05.184Z,12.10
2023-03-30T20:37:32.202Z,10.23
2023-03-30T20:40:03.535Z,12.27
2023-03-30T20:42:33.836Z,13.80
2023-03-30T20:45:01.210Z,10.90
2023-03-30T20:47:30.183Z,12.37
2023-03-30T20:49:58.262Z,10.70
2023-03-30T20:52:25.702Z,12.13
2023-03-30T20:54:52.763Z,11.80
2023-03-30T20:57:21.440Z,15.23
2023-03-30T20:59:49.947Z,10.13
2023-03-30T21:02:17.555Z,12.80
2023-03-30T21:04:44.826Z,11.07
2023-03-30T21:07:12.381Z,10.33
2023-03-30T21:09:39.741Z,7.17
2023-03-30T21:12:09.625Z,11.90
2023-03-30T21:14:36.696Z,12.03
2023-03-30T21:17:04.265Z,12.47
2023-03-30T21:19:31.270Z,12.93
2023-03-30T21:22:00.178Z,11.40
2023-03-30T21:24:27.496Z,10.90
2023-03-30T21:26:54.381Z,20.50
2023-03-30T21:29:22.592Z,12.33
2023-03-30T21:31:50.079Z,11.63
2023-03-30T21:34:18.643Z,8.43
2023-03-30T21:36:45.942Z,10.17
2023-03-30T21:39:13.036Z,10.40
2023-03-30T21:41:40.010Z,7.43
2023-03-30T21:44:07.613Z,6.57
2023-03-30T21:46:34.659Z,6.80
2023-03-30T21:49:01.567Z,7.30
2023-03-30T21:51:30.335Z,11.70
2023-03-30T21:53:58.396Z,10.20
2023-03-30T21:56:29.456Z,12.70
2023-03-30T21:58:56.942Z,7.57
2023-03-30T22:01:24.423Z,11.53
2023-03-30T22:03:52.911Z,7.53
2023-03-30T22:06:20.527Z,5.83
2023-03-30T22:08:47.445Z,11.50
2023-03-30T22:11:21.000Z,6.30
2023-03-30T22:13:48.993Z,7.73
2023-03-30T22:16:31.166Z,10.57
2023-03-30T22:18:58.069Z,7.93
2023-03-30T22:21:33.988Z,8.30
2023-03-30T22:24:02.918Z,12.90
2023-03-30T22:26:29.856Z,12.37
2023-03-30T22:28:57.126Z,13.30
2023-03-30T22:31:24.102Z,5.70
2023-03-30T22:33:52.837Z,9.27
2023-03-30T22:36:26.219Z,8.50
2023-03-30T22:38:53.348Z,11.23
2023-03-30T22:41:24.399Z,11.23
2023-03-30T22:43:57.014Z,8.07
2023-03-30T22:46:25.976Z,12.00
2023-03-30T22:48:55.334Z,13.53
2023-03-30T22:51:28.851Z,10.97
2023-03-30T22:53:58.243Z,14.30
2023-03-30T22:56:27.261Z,9.20
2023-03-30T22:58:54.261Z,13.67
2023-03-30T23:01:21.517Z,7.30
2023-03-30T23:03:48.721Z,10.13
2023-03-30T23:06:18.943Z,8.40
2023-03-30T23:08:48.295Z,10.30
2023-03-30T23:11:16.041Z,10.00
2023-03-30T23:13:42.949Z,9.73
2023-03-30T23:16:10.550Z,13.60
2023-03-30T23:18:37.577Z,11.40
2023-03-30T23:21:06.960Z,11.27
2023-03-30T23:23:36.234Z,8.73
2023-03-30T23:26:09.920Z,10.10
2023-03-30T23:28:40.301Z,10.37
2023-03-30T23:31:17.454Z,9.80
2023-03-30T23:33:44.643Z,10.17
2023-03-30T23:36:16.949Z,8.53
2023-03-30T23:38:44.400Z,12.53
2023-03-30T23:41:17.359Z,15.23
2023-03-30T23:43:44.471Z,12.47
2023-03-30T23:46:12.290Z,11.23
2023-03-30T23:48:39.833Z,12.57
2023-03-30T23:51:07.482Z,11.83
2023-03-30T23:53:34.488Z,12.37
2023-03-30T23:56:06.171Z,16.70
2023-03-30T23:58:33.389Z,11.60
